Time;durP1;ratioP1;P1;durP2;ratioP2;P2;SDS_P1;SDS_P2;PMS_P1;PMS_P2;Temp;Humidity;BMP_temperature;BMP_pressure;BME280_temperature;BME280_humidity;BME280_pressure;Samples;Min_cycle;Max_cycle;Signal;HPM_P1;HPM_P2
2022/11/07 00:01:08;;;;;;;23.83;8.05;;;;;;;16.59;100.00;97734.28;5021601;28;20041;-61
2022/11/07 00:03:34;;;;;;;32.47;8.68;;;;;;;16.23;100.00;97727.13;5020965;28;20038;-63
2022/11/07 00:06:00;;;;;;;28.88;8.35;;;;;;;16.03;100.00;97736.38;5022304;28;20033;-61
2022/11/07 00:08:30;;;;;;;29.15;8.23;;;;;;;16.22;100.00;97747.34;5024324;28;20037;-61
2022/11/07 00:10:56;;;;;;;33.15;8.77;;;;;;;15.98;100.00;97744.59;5022575;28;20041;-61
2022/11/07 00:13:22;;;;;;;31.85;8.85;;;;;;;16.15;100.00;97736.38;5021242;28;20026;-61
2022/11/07 00:15:47;;;;;;;34.83;8.45;;;;;;;16.16;100.00;97740.72;5019865;28;20053;-61
2022/11/07 00:18:13;;;;;;;24.67;7.93;;;;;;;16.46;100.00;97739.56;5021462;28;20711;-64
2022/11/07 00:20:38;;;;;;;30.30;9.00;;;;;;;16.06;100.00;97737.00;5019208;28;20033;-60
2022/11/07 00:23:03;;;;;;;31.63;8.80;;;;;;;16.20;100.00;97743.97;5018864;28;20033;-61
2022/11/07 00:25:29;;;;;;;31.20;8.35;;;;;;;15.70;100.00;97743.75;5020659;28;20636;-60
2022/11/07 00:27:54;;;;;;;36.28;8.90;;;;;;;16.59;100.00;97760.59;5020425;28;20056;-63
2022/11/07 00:30:19;;;;;;;30.65;7.78;;;;;;;16.87;100.00;97761.34;5018538;28;20029;-60
2022/11/07 00:32:45;;;;;;;29.20;8.07;;;;;;;16.19;100.00;97758.06;5017481;28;20033;-60
2022/11/07 00:35:10;;;;;;;31.52;7.90;;;;;;;16.68;100.00;97769.66;5018187;28;20525;-60
2022/11/07 00:37:35;;;;;;;24.80;7.13;;;;;;;16.80;100.00;97773.22;5020776;28;20045;-62
2022/11/07 00:40:01;;;;;;;30.15;7.97;;;;;;;16.72;100.00;97774.59;5019999;28;20029;-61
2022/11/07 00:42:26;;;;;;;31.63;8.07;;;;;;;15.95;100.00;97765.81;5019539;28;20038;-63
2022/11/07 00:44:51;;;;;;;26.65;7.22;;;;;;;16.34;100.00;97764.94;5020228;28;20025;-63
2022/11/07 00:47:17;;;;;;;30.42;8.27;;;;;;;16.12;100.00;97767.31;5019840;28;20048;-61
2022/11/07 00:49:42;;;;;;;34.92;7.68;;;;;;;17.24;100.00;97766.63;5020088;28;20028;-59
2022/11/07 00:52:07;;;;;;;27.98;7.57;;;;;;;16.28;100.00;97772.41;5019673;28;20924;-60
2022/11/07 00:54:33;;;;;;;24.08;6.70;;;;;;;16.81;100.00;97775.75;5020506;28;20509;-60
2022/11/07 00:56:59;;;;;;;28.55;7.38;;;;;;;16.32;100.00;97781.75;5020118;28;20554;-61
2022/11/07 00:59:25;;;;;;;32.47;7.53;;;;;;;16.96;100.00;97784.41;5019767;28;20530;-60
2022/11/07 01:01:51;;;;;;;34.13;7.47;;;;;;;17.00;100.00;97790.31;5016612;28;20042;-61
2022/11/07 01:07:01;;;;;;;22.20;7.05;;;;;;;16.51;100.00;97791.91;5018714;28;20072;-60
2022/11/07 01:09:26;;;;;;;33.88;8.25;;;;;;;15.45;100.00;97789.19;5019631;28;20064;-60
2022/11/07 01:11:52;;;;;;;24.13;7.35;;;;;;;16.60;100.00;97793.91;5018809;28;20423;-60
2022/11/07 01:14:19;;;;;;;25.48;7.30;;;;;;;16.10;100.00;97796.38;5020527;28;20029;-61
2022/11/07 01:16:46;;;;;;;28.27;7.50;;;;;;;16.41;100.00;97796.94;5019572;28;20026;-61
2022/11/07 01:19:11;;;;;;;23.55;6.97;;;;;;;16.79;100.00;97797.91;5020325;28;20025;-60
2022/11/07 01:21:39;;;;;;;25.17;7.28;;;;;;;16.82;100.00;97793.25;5019001;28;20122;-61
2022/11/07 01:24:07;;;;;;;25.20;7.30;;;;;;;16.67;100.00;97794.31;5019219;28;20022;-61
2022/11/07 01:26:32;;;;;;;23.73;6.88;;;;;;;16.18;100.00;97798.50;5018667;28;20113;-60
2022/11/07 01:28:58;;;;;;;24.13;6.72;;;;;;;16.70;100.00;97797.56;5019799;28;20175;-63
2022/11/07 01:31:24;;;;;;;26.77;6.60;;;;;;;16.29;100.00;97793.34;5018822;28;20045;-61
2022/11/07 01:33:49;;;;;;;33.50;7.38;;;;;;;16.84;100.00;97801.09;5019576;28;20037;-60
2022/11/07 01:36:16;;;;;;;25.00;6.25;;;;;;;15.96;100.00;97794.66;5019630;28;20044;-61
2022/11/07 01:38:45;;;;;;;25.25;6.15;;;;;;;16.23;100.00;97806.06;5018616;28;20052;-61
2022/11/07 01:41:25;;;;;;;25.27;6.32;;;;;;;16.23;100.00;97806.94;5018532;28;20041;-61
2022/11/07 01:43:53;;;;;;;27.73;6.35;;;;;;;16.94;100.00;97810.03;5019283;28;20483;-63
2022/11/07 01:46:20;;;;;;;23.83;6.00;;;;;;;16.93;100.00;97805.72;5019589;28;20160;-60
2022/11/07 01:48:51;;;;;;;26.35;6.22;;;;;;;16.47;100.00;97808.84;5019681;28;20025;-60
2022/11/07 01:51:18;;;;;;;25.48;6.35;;;;;;;16.46;100.00;97812.44;5008007;28;20037;-61
2022/11/07 01:53:44;;;;;;;25.40;6.68;;;;;;;16.72;100.00;97808.84;5019116;28;20566;-61
2022/11/07 01:56:15;;;;;;;28.17;6.65;;;;;;;17.25;100.00;97813.13;5018781;28;20087;-64
2022/11/07 01:58:42;;;;;;;24.45;6.43;;;;;;;16.56;100.00;97813.50;5020037;28;20017;-60
2022/11/07 02:01:07;;;;;;;26.95;6.32;;;;;;;17.00;100.00;97825.41;5018131;28;20064;-60
2022/11/07 02:03:33;;;;;;;17.92;5.45;;;;;;;17.40;100.00;97814.66;5018921;28;20057;-60
2022/11/07 02:06:04;;;;;;;29.60;6.78;;;;;;;16.46;100.00;97808.00;5019069;28;20072;-61
2022/11/07 02:08:32;;;;;;;20.88;5.93;;;;;;;16.57;100.00;97804.63;5019581;28;20404;-61
2022/11/07 02:11:01;;;;;;;25.70;6.57;;;;;;;16.42;100.00;97810.97;5017411;28;20042;-65
2022/11/07 02:13:29;;;;;;;23.92;6.30;;;;;;;16.88;100.00;97807.81;5018829;28;20026;-65
2022/11/07 02:15:55;;;;;;;28.25;6.43;;;;;;;17.48;100.00;97816.75;5018701;28;20084;-60
2022/11/07 02:18:22;;;;;;;27.98;6.55;;;;;;;16.15;100.00;97809.22;5019068;28;20035;-60
2022/11/07 02:20:47;;;;;;;27.13;5.97;;;;;;;15.65;100.00;97805.47;5018218;28;20414;-60
2022/11/07 02:23:26;;;;;;;27.70;6.68;;;;;;;16.59;100.00;97802.75;5018318;28;20033;-60
2022/11/07 02:25:52;;;;;;;25.05;5.97;;;;;;;16.61;100.00;97806.09;5018220;28;20064;-62
2022/11/07 02:28:19;;;;;;;24.30;5.95;;;;;;;16.33;100.00;97807.97;5018926;28;20705;-60
2022/11/07 02:30:45;;;;;;;22.67;5.88;;;;;;;16.65;100.00;97802.34;5018325;28;20067;-60
2022/11/07 02:33:22;;;;;;;26.63;6.20;;;;;;;15.60;100.00;97804.00;5019067;28;20067;-60
2022/11/07 02:35:49;;;;;;;25.85;6.18;;;;;;;16.30;100.00;97802.94;5018251;28;20025;-63
2022/11/07 02:38:20;;;;;;;25.20;6.47;;;;;;;16.05;100.00;97814.25;5016701;28;20063;-60
2022/11/07 02:40:59;;;;;;;30.55;6.85;;;;;;;16.93;100.00;97816.25;5017196;28;20048;-61
2022/11/07 02:43:28;;;;;;;26.90;6.20;;;;;;;16.40;100.00;97811.06;5018511;28;20075;-62
2022/11/07 02:45:56;;;;;;;24.27;6.07;;;;;;;16.49;100.00;97817.50;5017879;28;20037;-62
2022/11/07 02:48:21;;;;;;;27.20;6.30;;;;;;;15.97;100.00;97820.03;5018372;28;20039;-61
2022/11/07 02:50:46;;;;;;;31.65;7.25;;;;;;;15.43;100.00;97822.63;5017194;28;20511;-61
2022/11/07 02:53:12;;;;;;;22.88;6.30;;;;;;;16.11;100.00;97818.28;5018088;28;20487;-63
2022/11/07 02:55:37;;;;;;;25.48;6.30;;;;;;;16.73;100.00;97821.06;5018022;28;20056;-61
2022/11/07 02:58:03;;;;;;;30.85;6.50;;;;;;;16.87;100.00;97816.66;5017776;28;20022;-60
2022/11/07 03:00:28;;;;;;;28.50;6.30;;;;;;;16.95;100.00;97814.34;5017337;28;20081;-60
2022/11/07 03:02:54;;;;;;;31.08;6.80;;;;;;;16.42;100.00;97811.78;5017319;28;20040;-61
2022/11/07 03:05:19;;;;;;;27.50;6.38;;;;;;;16.69;100.00;97803.81;5017956;28;20446;-61
2022/11/07 03:07:47;;;;;;;24.52;5.80;;;;;;;16.15;100.00;97803.97;5018700;28;20125;-61
2022/11/07 03:10:14;;;;;;;20.67;5.43;;;;;;;15.84;100.00;97800.72;5017605;28;20029;-62
2022/11/07 03:12:39;;;;;;;28.13;6.05;;;;;;;17.03;100.00;97813.81;5018038;28;20080;-62
2022/11/07 03:15:06;;;;;;;27.98;6.22;;;;;;;16.65;100.00;97812.88;5018396;28;20025;-62
2022/11/07 03:17:32;;;;;;;23.13;5.53;;;;;;;16.82;100.00;97814.34;5017585;28;20113;-61
2022/11/07 03:19:57;;;;;;;35.15;6.97;;;;;;;17.42;100.00;97818.03;5016522;28;20144;-63
2022/11/07 03:22:22;;;;;;;28.10;5.80;;;;;;;16.40;100.00;97820.75;5013068;28;20044;-60
2022/11/07 03:24:48;;;;;;;27.05;6.00;;;;;;;16.92;100.00;97814.56;5015955;28;20034;-61
2022/11/07 03:27:14;;;;;;;27.77;5.68;;;;;;;16.50;100.00;97813.91;5017082;28;20038;-61
2022/11/07 03:29:40;;;;;;;27.58;5.93;;;;;;;16.73;100.00;97815.81;5017621;28;20036;-62
2022/11/07 03:32:05;;;;;;;30.63;5.78;;;;;;;16.22;100.00;97804.41;5017216;28;20149;-61
2022/11/07 03:34:31;;;;;;;30.02;5.72;;;;;;;16.62;100.00;97818.34;5017725;28;20128;-61
2022/11/07 03:36:56;;;;;;;26.90;5.47;;;;;;;16.60;100.00;97824.63;5017883;28;20111;-61
2022/11/07 03:39:21;;;;;;;28.15;5.78;;;;;;;16.51;100.00;97820.88;5017979;28;20076;-65
2022/11/07 03:41:47;;;;;;;23.27;5.10;;;;;;;16.61;100.00;97807.91;5017361;28;20459;-64
2022/11/07 03:44:12;;;;;;;26.17;5.90;;;;;;;16.15;100.00;97822.38;5017007;28;20029;-62
2022/11/07 03:46:37;;;;;;;28.35;5.53;;;;;;;16.83;100.00;97825.72;5017621;28;20123;-62
2022/11/07 03:49:03;;;;;;;23.58;5.20;;;;;;;16.47;100.00;97824.63;5020136;28;20025;-62
2022/11/07 03:51:28;;;;;;;26.80;5.38;;;;;;;16.69;100.00;97814.34;5020988;28;20038;-62
2022/11/07 03:53:53;;;;;;;21.92;5.20;;;;;;;17.10;100.00;97833.50;5021251;28;20030;-63
2022/11/07 03:56:19;;;;;;;23.90;5.18;;;;;;;16.91;100.00;97829.53;5021122;28;20077;-63
2022/11/07 03:58:44;;;;;;;29.58;5.32;;;;;;;17.08;100.00;97830.16;5021755;28;20087;-61
2022/11/07 04:01:10;;;;;;;29.02;5.53;;;;;;;16.56;100.00;97829.28;5019973;28;20563;-61
2022/11/07 04:03:36;;;;;;;31.67;5.88;;;;;;;16.14;100.00;97833.88;5020227;28;20041;-61
2022/11/07 04:06:01;;;;;;;19.92;5.03;;;;;;;17.05;100.00;97841.72;5021486;28;20091;-61
2022/11/07 04:08:26;;;;;;;27.85;5.60;;;;;;;17.05;100.00;97841.72;5021023;28;20531;-60
2022/11/07 04:10:52;;;;;;;21.98;5.25;;;;;;;16.29;100.00;97838.09;5020161;28;20041;-60
2022/11/07 04:18:45;;;;;;;24.67;5.50;;;;;;;16.62;100.00;97844.66;5021032;28;20625;-61
2022/11/07 04:21:10;;;;;;;25.92;6.03;;;;;;;16.74;100.00;97848.25;5020048;28;20088;-62
2022/11/07 04:23:36;;;;;;;24.80;5.28;;;;;;;16.80;100.00;97846.97;5020454;28;20036;-60
2022/11/07 04:28:45;;;;;;;27.52;5.80;;;;;;;16.87;100.00;97848.28;5020868;28;20478;-61
2022/11/07 04:31:10;;;;;;;24.88;5.43;;;;;;;16.42;100.00;97853.06;5018545;28;20848;-62
2022/11/07 04:33:35;;;;;;;24.20;5.20;;;;;;;15.98;100.00;97855.06;5019948;28;20021;-60
2022/11/07 04:36:01;;;;;;;25.45;5.43;;;;;;;16.51;100.00;97852.44;5020469;28;20045;-61
2022/11/07 04:38:26;;;;;;;23.23;4.88;;;;;;;16.57;100.00;97858.13;5021368;28;20029;-62
2022/11/07 04:40:56;;;;;;;32.33;5.78;;;;;;;16.25;100.00;97868.19;5019400;28;20567;-61
2022/11/07 04:43:23;;;;;;;23.92;4.95;;;;;;;16.97;100.00;97870.41;5020014;28;20084;-61
2022/11/07 04:45:49;;;;;;;23.75;4.95;;;;;;;16.67;100.00;97874.16;5020172;28;20037;-62
2022/11/07 04:48:14;;;;;;;23.42;5.10;;;;;;;15.96;100.00;97872.75;5020549;28;20033;-63
2022/11/07 04:50:40;;;;;;;24.73;4.93;;;;;;;16.91;100.00;97866.41;5019503;28;20045;-62
2022/11/07 04:53:05;;;;;;;29.02;5.65;;;;;;;16.42;100.00;97868.88;5009275;28;20517;-64
2022/11/07 04:55:31;;;;;;;25.08;5.07;;;;;;;16.53;100.00;97871.63;5019716;28;20099;-62
2022/11/07 04:57:57;;;;;;;23.85;4.85;;;;;;;16.91;100.00;97870.84;5020628;28;20039;-63
2022/11/07 05:00:23;;;;;;;26.08;5.43;;;;;;;15.75;100.00;97867.06;5018770;28;20026;-64
2022/11/07 05:02:49;;;;;;;23.35;5.05;;;;;;;16.53;100.00;97869.00;5020088;28;20025;-62
2022/11/07 05:05:16;;;;;;;28.05;5.60;;;;;;;16.22;100.00;97871.03;5018839;28;20506;-63
2022/11/07 05:07:42;;;;;;;26.08;4.85;;;;;;;16.61;100.00;97877.19;5020709;28;20025;-64
2022/11/07 05:10:16;;;;;;;28.92;5.40;;;;;;;16.51;100.00;97876.97;5018875;28;20028;-62
2022/11/07 05:12:41;;;;;;;23.90;5.20;;;;;;;16.18;100.00;97883.53;5019801;28;20026;-64
2022/11/07 05:15:07;;;;;;;21.50;5.00;;;;;;;15.99;100.00;97881.28;5019556;28;20029;-63
2022/11/07 05:17:32;;;;;;;28.15;5.55;;;;;;;16.11;100.00;97873.53;5019301;28;20041;-61
2022/11/07 05:19:58;;;;;;;20.70;4.65;;;;;;;16.26;100.00;97883.03;5019395;28;20172;-63
2022/11/07 05:25:08;;;;;;;25.60;5.10;;;;;;;16.38;100.00;97887.50;5019550;28;20040;-60
2022/11/07 05:27:33;;;;;;;30.17;5.47;;;;;;;16.39;100.00;97890.97;5019784;28;20029;-62
2022/11/07 05:29:58;;;;;;;24.55;5.07;;;;;;;15.79;100.00;97892.25;5019553;28;20041;-62
2022/11/07 05:32:24;;;;;;;21.33;4.63;;;;;;;16.25;100.00;97886.63;5019198;28;20045;-62
2022/11/07 05:34:49;;;;;;;21.48;4.60;;;;;;;16.02;100.00;97882.84;5019828;28;20079;-62
2022/11/07 05:37:14;;;;;;;20.70;4.53;;;;;;;16.42;100.00;97879.41;5019379;28;20414;-62
2022/11/07 05:39:40;;;;;;;36.75;6.25;;;;;;;16.21;100.00;97887.78;5018551;28;20022;-61
2022/11/07 05:42:05;;;;;;;24.90;5.35;;;;;;;17.13;100.00;97893.91;5018786;28;20044;-62
2022/11/07 05:44:31;;;;;;;24.67;4.88;;;;;;;17.08;100.00;97881.03;5020201;28;20108;-62
2022/11/07 05:46:57;;;;;;;22.98;4.90;;;;;;;15.76;100.00;97895.91;5019130;28;20056;-64
2022/11/07 05:49:23;;;;;;;27.02;5.10;;;;;;;16.92;100.00;97896.22;5019842;28;20025;-62
2022/11/07 05:51:48;;;;;;;30.60;6.00;;;;;;;16.94;100.00;97891.69;5018077;28;20049;-63
2022/11/07 05:54:14;;;;;;;23.60;5.43;;;;;;;16.17;100.00;97884.50;5017900;28;20022;-62
2022/11/07 05:56:42;;;;;;;29.35;5.53;;;;;;;16.39;100.00;97896.22;5018691;28;20041;-64
2022/11/07 05:59:07;;;;;;;20.40;4.70;;;;;;;16.40;100.00;97892.66;5019280;28;20064;-64
2022/11/07 06:01:33;;;;;;;22.73;4.85;;;;;;;16.70;100.00;97895.00;5018192;28;20139;-65
2022/11/07 06:03:58;;;;;;;29.90;5.57;;;;;;;16.11;100.00;97889.31;5018800;28;20025;-61
2022/11/07 06:06:23;;;;;;;20.00;4.70;;;;;;;16.92;100.00;97901.50;5018620;28;20043;-62
2022/11/07 06:08:49;;;;;;;23.38;4.60;;;;;;;16.59;100.00;97910.69;5018576;28;20075;-62
2022/11/07 06:11:14;;;;;;;25.13;5.00;;;;;;;16.93;100.00;97903.19;5017196;28;20037;-62
2022/11/07 06:13:39;;;;;;;24.75;5.10;;;;;;;16.77;100.00;97906.81;5018719;28;20033;-61
2022/11/07 06:16:05;;;;;;;26.48;5.30;;;;;;;16.47;100.00;97898.34;5018268;28;20045;-62
2022/11/07 06:18:30;;;;;;;25.08;5.25;;;;;;;16.76;100.00;97907.78;5018772;28;20535;-62
2022/11/07 06:20:56;;;;;;;23.95;5.07;;;;;;;16.52;100.00;97906.78;5017222;28;20099;-62
2022/11/07 06:23:21;;;;;;;22.17;5.03;;;;;;;15.64;100.00;97904.56;5018503;28;20035;-62
2022/11/07 06:25:46;;;;;;;29.20;5.25;;;;;;;16.05;100.00;97905.50;5018444;28;20869;-62
2022/11/07 06:28:13;;;;;;;32.70;6.10;;;;;;;16.35;100.00;97915.81;5019277;28;20834;-62
2022/11/07 06:30:39;;;;;;;28.00;5.60;;;;;;;16.64;100.00;97921.78;5017567;28;20033;-62
2022/11/07 06:33:07;;;;;;;27.08;5.50;;;;;;;16.71;100.00;97923.03;5018418;28;20490;-63
2022/11/07 06:35:33;;;;;;;25.33;5.20;;;;;;;16.77;100.00;97922.63;5016709;28;20041;-62
2022/11/07 06:38:09;;;;;;;21.77;4.72;;;;;;;15.89;100.00;97927.50;5016920;28;20044;-63
2022/11/07 06:40:34;;;;;;;26.30;5.40;;;;;;;15.96;100.00;97925.34;5016806;28;20038;-61
2022/11/07 06:43:09;;;;;;;23.70;5.18;;;;;;;16.14;100.00;97918.91;5019180;28;20028;-62
2022/11/07 06:45:35;;;;;;;23.90;4.78;;;;;;;16.38;100.00;97916.44;5018002;28;20064;-62
2022/11/07 06:48:01;;;;;;;23.20;4.60;;;;;;;16.52;100.00;97917.31;5018767;28;20551;-62
2022/11/07 06:50:26;;;;;;;26.17;5.07;;;;;;;16.52;100.00;97922.56;5013312;28;20168;-63
2022/11/07 06:52:52;;;;;;;20.35;4.70;;;;;;;16.15;100.00;97935.53;5017188;28;20033;-64
2022/11/07 06:55:17;;;;;;;23.52;4.90;;;;;;;16.04;100.00;97938.00;5017721;28;20037;-63
2022/11/07 06:57:42;;;;;;;28.20;5.30;;;;;;;16.71;100.00;97938.84;5017783;28;20017;-62
2022/11/07 07:00:08;;;;;;;24.17;4.95;;;;;;;17.27;100.00;97954.41;5017167;28;20021;-62
2022/11/07 07:02:34;;;;;;;25.92;5.18;;;;;;;16.69;100.00;97956.53;5017171;28;20033;-62
2022/11/07 07:04:59;;;;;;;27.48;5.32;;;;;;;16.85;100.00;97960.81;5019064;28;20191;-61
2022/11/07 07:07:24;;;;;;;23.00;4.88;;;;;;;17.02;100.00;97955.25;5018071;28;20076;-61
2022/11/07 07:09:50;;;;;;;39.20;6.45;;;;;;;16.99;100.00;97955.47;5017797;28;20029;-62
2022/11/07 07:12:15;;;;;;;28.60;5.32;;;;;;;16.89;100.00;97951.75;5016917;28;20033;-61
2022/11/07 07:14:40;;;;;;;29.98;5.70;;;;;;;17.03;100.00;97959.56;5018270;28;20037;-61
2022/11/07 07:17:05;;;;;;;26.20;5.07;;;;;;;17.15;100.00;97969.28;5017520;28;20037;-61
2022/11/07 07:19:31;;;;;;;24.55;4.93;;;;;;;16.82;100.00;97955.69;5018866;28;20555;-62
2022/11/07 07:21:56;;;;;;;27.25;5.50;;;;;;;17.17;100.00;97963.03;5016839;28;20038;-62
2022/11/07 07:24:22;;;;;;;22.27;5.15;;;;;;;17.17;100.00;97970.94;5021825;28;20025;-63
2022/11/07 07:26:47;;;;;;;25.60;5.03;;;;;;;17.03;100.00;97966.63;5021514;28;20086;-62
2022/11/07 07:29:12;;;;;;;26.13;5.28;;;;;;;17.52;100.00;97965.91;5021941;28;20721;-63
2022/11/07 07:31:37;;;;;;;19.60;5.20;;;;;;;16.58;100.00;97959.06;5021037;28;20071;-61
2022/11/07 07:34:03;;;;;;;26.48;5.97;;;;;;;17.61;100.00;97969.66;5021250;28;20039;-61
2022/11/07 07:36:28;;;;;;;22.58;4.78;;;;;;;17.79;100.00;97973.66;5020414;28;20025;-61
2022/11/07 07:38:53;;;;;;;24.85;5.38;;;;;;;16.64;100.00;97963.91;5021582;28;20031;-60
2022/11/07 07:41:19;;;;;;;22.48;4.75;;;;;;;16.60;100.00;97966.81;5020574;28;20518;-61
2022/11/07 07:43:44;;;;;;;22.33;4.88;;;;;;;18.07;100.00;97966.44;5021404;28;20049;-61
2022/11/07 07:46:14;;;;;;;28.77;5.55;;;;;;;16.95;100.00;97961.88;5020980;28;20099;-63
2022/11/07 07:48:39;;;;;;;33.55;8.48;;;;;;;17.18;100.00;97972.66;5020950;28;20083;-58
2022/11/07 07:51:05;;;;;;;35.45;7.60;;;;;;;17.67;100.00;97974.53;5020751;28;20041;-60
2022/11/07 07:53:30;;;;;;;33.05;9.15;;;;;;;17.90;100.00;97976.41;5021040;28;20029;-60
2022/11/07 07:55:57;;;;;;;27.95;6.53;;;;;;;18.06;100.00;97975.28;5021541;28;20077;-60
2022/11/07 07:58:24;;;;;;;25.98;5.40;;;;;;;17.85;100.00;97972.41;5021895;28;20881;-60
2022/11/07 08:00:53;;;;;;;23.60;5.00;;;;;;;18.13;100.00;97981.81;5020515;28;20047;-61
2022/11/07 08:03:19;;;;;;;32.92;5.72;;;;;;;17.54;100.00;97980.66;5020024;28;20621;-61
2022/11/07 08:05:54;;;;;;;23.10;4.82;;;;;;;17.78;100.00;97977.25;5021229;28;20029;-61
2022/11/07 08:08:20;;;;;;;25.38;5.03;;;;;;;17.45;100.00;97981.28;5021143;28;20028;-61
2022/11/07 08:10:45;;;;;;;22.33;4.82;;;;;;;17.54;100.00;97988.56;5020390;28;20045;-60
2022/11/07 08:13:10;;;;;;;27.45;4.95;;;;;;;18.04;100.00;97988.59;5020964;28;20040;-60
2022/11/07 08:15:36;;;;;;;30.38;5.85;;;;;;;18.16;100.00;97976.34;5020328;28;20038;-61
2022/11/07 08:18:03;;;;;;;21.92;4.35;;;;;;;18.89;100.00;97985.06;5021175;28;20021;-60
2022/11/07 08:20:28;;;;;;;28.30;4.93;;;;;;;17.51;100.00;97986.13;5019770;28;20573;-60
2022/11/07 08:23:06;;;;;;;22.85;4.72;;;;;;;18.15;100.00;97989.63;5021246;28;20041;-60
2022/11/07 08:25:31;;;;;;;22.80;4.65;;;;;;;18.76;100.00;97995.69;5019629;28;20044;-61
2022/11/07 08:27:57;;;;;;;18.77;3.90;;;;;;;18.80;100.00;97993.66;5021136;28;20029;-62
2022/11/07 08:30:22;;;;;;;25.92;4.43;;;;;;;17.99;100.00;97995.16;5020222;28;20125;-64
2022/11/07 08:32:48;;;;;;;20.45;4.45;;;;;;;18.96;100.00;97990.75;5019644;28;20025;-61
2022/11/07 08:35:13;;;;;;;29.98;4.65;;;;;;;19.13;100.00;97994.75;5020227;28;20037;-61
2022/11/07 08:37:38;;;;;;;25.90;4.97;;;;;;;18.44;100.00;97996.28;5020685;28;20026;-62
2022/11/07 08:40:04;;;;;;;22.05;4.22;;;;;;;18.93;100.00;97998.91;5019963;28;20029;-64
2022/11/07 08:42:29;;;;;;;18.13;4.35;;;;;;;19.88;100.00;97988.09;5020218;28;20127;-62
2022/11/07 08:44:55;;;;;;;23.33;4.35;;;;;;;19.77;100.00;97981.84;5021127;28;20106;-62
2022/11/07 08:47:20;;;;;;;19.40;4.18;;;;;;;20.18;100.00;97995.38;5020196;28;20138;-63
2022/11/07 08:49:45;;;;;;;36.10;5.40;;;;;;;19.00;100.00;97998.31;5019820;28;20155;-63
2022/11/07 08:52:11;;;;;;;24.02;4.50;;;;;;;19.17;100.00;97980.34;5019743;28;20037;-61
2022/11/07 08:54:36;;;;;;;26.88;4.65;;;;;;;19.62;100.00;97983.03;5019135;28;20502;-62
2022/11/07 08:57:01;;;;;;;24.17;4.47;;;;;;;20.08;100.00;97979.41;5019325;28;20510;-63
2022/11/07 08:59:28;;;;;;;26.25;4.78;;;;;;;19.37;100.00;97982.31;5020625;28;20065;-61
2022/11/07 09:01:54;;;;;;;18.05;3.78;;;;;;;19.80;100.00;97986.91;5018278;28;20393;-61
2022/11/07 09:04:19;;;;;;;18.23;3.75;;;;;;;20.23;100.00;97979.97;5020006;28;20041;-63
2022/11/07 09:06:44;;;;;;;16.42;3.45;;;;;;;20.19;97.80;97987.31;5020223;28;20483;-64
2022/11/07 09:09:10;;;;;;;22.95;4.28;;;;;;;21.05;97.54;97981.25;5019979;28;20029;-62
2022/11/07 09:11:35;;;;;;;21.90;4.18;;;;;;;20.80;99.73;97984.13;5018617;28;20037;-62
2022/11/07 09:14:01;;;;;;;17.80;3.70;;;;;;;20.99;95.74;97972.84;5019729;28;20057;-62
2022/11/07 09:16:26;;;;;;;12.88;2.83;;;;;;;21.73;90.43;97982.50;5020070;28;20049;-61
2022/11/07 09:18:52;;;;;;;18.05;3.50;;;;;;;20.19;91.77;97983.84;5020508;28;20102;-64
2022/11/07 09:21:18;;;;;;;20.50;3.83;;;;;;;20.11;94.89;97979.19;5018568;28;20061;-63
2022/11/07 09:23:43;;;;;;;23.25;3.65;;;;;;;22.35;87.55;97985.06;5017363;28;20024;-61
2022/11/07 09:26:09;;;;;;;19.85;3.88;;;;;;;21.27;94.60;97982.94;5019280;28;20037;-61
2022/11/07 09:28:35;;;;;;;18.27;3.80;;;;;;;23.16;82.56;97995.44;5020100;28;20083;-61
2022/11/07 09:31:02;;;;;;;15.05;3.38;;;;;;;22.44;85.89;97984.25;5019049;28;20037;-61
2022/11/07 09:33:28;;;;;;;20.13;3.83;;;;;;;21.42;86.71;97975.47;5019584;28;20025;-64
2022/11/07 09:35:53;;;;;;;18.80;3.75;;;;;;;;;;5019754;28;20125;-64
2022/11/07 09:38:19;;;;;;;27.83;4.88;;;;;;;20.31;90.97;97974.06;5019522;28;20025;-62
2022/11/07 09:41:04;;;;;;;20.70;4.07;;;;;;;21.22;96.50;97975.34;5018446;28;20041;-61
2022/11/07 09:44:00;;;;;;;23.88;4.10;;;;;;;21.65;93.29;97977.03;5019007;28;20025;-61
2022/11/07 09:46:44;;;;;;;18.13;3.53;;;;;;;21.67;91.48;97985.69;5018074;28;20041;-61
2022/11/07 09:49:17;;;;;;;17.30;3.47;;;;;;;21.07;90.31;97980.16;5019009;28;20504;-62
2022/11/07 09:51:49;;;;;;;55.53;5.75;;;;;;;21.69;84.09;97989.03;5018350;28;20037;-63
2022/11/07 09:54:22;;;;;;;18.73;3.35;;;;;;;22.01;86.03;97977.41;5017933;28;20033;-61
2022/11/07 09:56:47;;;;;;;20.75;3.90;;;;;;;22.21;89.83;97978.28;5018845;28;20069;-61
2022/11/07 09:59:29;;;;;;;19.08;3.47;;;;;;;22.48;90.52;97993.63;5019408;28;20116;-61
2022/11/07 10:01:54;;;;;;;16.77;3.42;;;;;;;21.72;83.76;97987.91;5017457;28;20136;-62
2022/11/07 10:04:22;;;;;;;17.17;3.22;;;;;;;21.80;81.31;97979.28;5018622;28;20104;-61
2022/11/07 10:06:59;;;;;;;19.85;3.72;;;;;;;23.00;81.51;97988.00;5018773;28;20128;-63
2022/11/07 10:09:44;;;;;;;19.63;3.28;;;;;;;22.80;78.06;97983.69;5018896;28;20041;-61
2022/11/07 10:12:47;;;;;;;18.05;3.55;;;;;;;22.87;79.99;97985.63;5018346;28;20042;-62
2022/11/07 10:15:23;;;;;;;14.73;3.00;;;;;;;21.45;80.15;97983.19;5018194;28;20773;-65
2022/11/07 10:17:58;;;;;;;19.27;3.50;;;;;;;20.95;84.58;97984.69;5018800;28;20083;-63
2022/11/07 10:20:34;;;;;;;17.40;3.50;;;;;;;21.63;82.73;97983.41;5017678;28;20033;-64
2022/11/07 10:23:07;;;;;;;25.75;4.22;;;;;;;21.14;84.64;97985.78;5017878;28;20025;-65
2022/11/07 10:25:38;;;;;;;12.77;3.00;;;;;;;22.26;83.91;97992.03;5018467;28;20132;-61
2022/11/07 10:28:06;;;;;;;23.03;3.97;;;;;;;22.50;86.18;97996.97;5018670;28;20591;-63
2022/11/07 10:30:32;;;;;;;16.08;3.35;;;;;;;21.30;81.48;97987.97;5008322;28;20554;-61
2022/11/07 10:33:10;;;;;;;15.40;3.10;;;;;;;20.93;83.13;97986.59;5018168;28;20549;-63
2022/11/07 10:35:41;;;;;;;18.30;3.38;;;;;;;21.31;84.35;97990.47;5017940;28;20033;-61
2022/11/07 10:38:27;;;;;;;31.98;4.40;;;;;;;22.74;79.16;97990.41;5018279;28;20100;-63
2022/11/07 10:40:53;;;;;;;15.38;2.97;;;;;;;21.89;85.23;97983.78;5017535;28;20124;-62
2022/11/07 10:43:28;;;;;;;20.25;3.50;;;;;;;22.97;79.03;97990.13;5018619;28;20128;-62
2022/11/07 10:45:54;;;;;;;16.45;3.00;;;;;;;22.48;79.47;97987.47;5018608;28;20033;-63
2022/11/07 10:48:20;;;;;;;22.35;3.65;;;;;;;22.18;79.07;97989.19;5009976;28;20570;-63
2022/11/07 10:50:52;;;;;;;17.08;3.15;;;;;;;22.42;79.33;97985.34;5017518;28;20045;-62
2022/11/07 10:53:20;;;;;;;20.25;3.67;;;;;;;22.37;76.14;97977.81;5018007;28;20043;-62
2022/11/07 10:55:47;;;;;;;12.98;2.88;;;;;;;22.42;75.82;97980.84;5018102;28;20037;-61
2022/11/07 10:58:23;;;;;;;17.80;3.25;;;;;;;22.50;73.72;97977.53;5018839;28;20137;-61
2022/11/07 11:01:09;;;;;;;17.60;3.05;;;;;;;23.04;73.00;97972.63;5017433;28;20549;-63
2022/11/07 11:03:45;;;;;;;18.88;3.35;;;;;;;22.65;77.08;97972.63;5018013;28;20044;-63
2022/11/07 11:06:16;;;;;;;17.05;2.95;;;;;;;22.24;73.79;97969.19;5018239;28;20681;-61
2022/11/07 11:08:41;;;;;;;17.80;3.28;;;;;;;22.93;73.61;97973.59;5018747;28;20060;-65
2022/11/07 11:11:26;;;;;;;17.92;3.28;;;;;;;23.13;72.47;97973.63;5017193;28;20037;-62
2022/11/07 11:14:09;;;;;;;14.88;2.90;;;;;;;22.83;70.55;97968.28;5018640;28;20033;-62
2022/11/07 11:16:37;;;;;;;14.77;2.85;;;;;;;23.38;71.58;97964.16;5018096;28;20180;-61
2022/11/07 11:19:03;;;;;;;19.80;3.10;;;;;;;22.43;71.47;97971.94;5018379;28;20025;-62
2022/11/07 11:21:44;;;;;;;14.43;2.75;;;;;;;23.94;67.50;97965.09;5016678;28;20045;-62
2022/11/07 11:24:22;;;;;;;18.65;3.35;;;;;;;23.40;68.72;97955.06;5016754;28;20022;-61
2022/11/07 11:26:50;;;;;;;16.95;3.20;;;;;;;22.16;70.38;97963.75;5017674;28;20037;-64
2022/11/07 11:29:21;;;;;;;18.08;3.35;;;;;;;23.26;70.61;97959.00;5018040;28;20025;-62
2022/11/07 11:31:51;;;;;;;21.02;3.72;;;;;;;22.29;74.41;97964.34;5017204;28;20044;-64
2022/11/07 11:34:26;;;;;;;16.75;3.00;;;;;;;22.86;71.24;97957.34;5018077;28;20040;-64